sensor_id;sensor_type;location;lat;lon;timestamp;P1;durP1;ratioP1;P2;durP2;ratioP2
11247;SDS011;5681;53.316;13.950;2024-03-07T00:02:17;27.70;;;15.40;;
11247;SDS011;5681;53.316;13.950;2024-03-07T00:04:45;24.77;;;14.47;;
11247;SDS011;5681;53.316;13.950;2024-03-07T00:07:11;28.87;;;14.87;;
11247;SDS011;5681;53.316;13.950;2024-03-07T00:09:38;21.97;;;14.17;;
11247;SDS011;5681;53.316;13.950;2024-03-07T00:12:07;27.40;;;14.80;;
11247;SDS011;5681;53.316;13.950;2024-03-07T00:14:34;25.13;;;14.70;;
11247;SDS011;5681;53.316;13.950;2024-03-07T00:17:00;27.53;;;13.77;;
11247;SDS011;5681;53.316;13.950;2024-03-07T00:19:28;27.63;;;14.60;;
11247;SDS011;5681;53.316;13.950;2024-03-07T00:21:56;29.07;;;14.17;;
11247;SDS011;5681;53.316;13.950;2024-03-07T00:24:23;21.10;;;13.37;;
11247;SDS011;5681;53.316;13.950;2024-03-07T00:26:49;23.20;;;13.37;;
11247;SDS011;5681;53.316;13.950;2024-03-07T00:29:16;22.97;;;13.17;;
11247;SDS011;5681;53.316;13.950;2024-03-07T00:31:43;21.37;;;13.60;;
11247;SDS011;5681;53.316;13.950;2024-03-07T00:34:10;19.57;;;12.93;;
11247;SDS011;5681;53.316;13.950;2024-03-07T00:36:39;21.70;;;13.70;;
11247;SDS011;5681;53.316;13.950;2024-03-07T00:39:06;22.13;;;13.43;;
11247;SDS011;5681;53.316;13.950;2024-03-07T00:41:33;24.33;;;13.40;;
11247;SDS011;5681;53.316;13.950;2024-03-07T00:43:59;22.97;;;13.33;;
11247;SDS011;5681;53.316;13.950;2024-03-07T00:46:26;22.20;;;14.17;;
11247;SDS011;5681;53.316;13.950;2024-03-07T00:48:52;22.03;;;13.73;;
11247;SDS011;5681;53.316;13.950;2024-03-07T00:51:19;23.50;;;13.63;;
11247;SDS011;5681;53.316;13.950;2024-03-07T00:53:45;23.70;;;13.40;;
11247;SDS011;5681;53.316;13.950;2024-03-07T00:56:13;20.23;;;13.03;;
11247;SDS011;5681;53.316;13.950;2024-03-07T00:58:40;20.47;;;12.87;;
11247;SDS011;5681;53.316;13.950;2024-03-07T01:01:06;23.83;;;14.30;;
11247;SDS011;5681;53.316;13.950;2024-03-07T01:03:33;25.90;;;13.97;;
11247;SDS011;5681;53.316;13.950;2024-03-07T01:05:59;25.50;;;14.00;;
11247;SDS011;5681;53.316;13.950;2024-03-07T01:08:26;20.37;;;13.60;;
11247;SDS011;5681;53.316;13.950;2024-03-07T01:10:53;21.90;;;13.60;;
11247;SDS011;5681;53.316;13.950;2024-03-07T01:13:20;25.10;;;14.17;;
11247;SDS011;5681;53.316;13.950;2024-03-07T01:15:49;27.70;;;13.60;;
11247;SDS011;5681;53.316;13.950;2024-03-07T01:18:15;24.37;;;13.40;;
11247;SDS011;5681;53.316;13.950;2024-03-07T01:20:42;27.63;;;13.93;;
11247;SDS011;5681;53.316;13.950;2024-03-07T01:23:08;24.60;;;13.93;;
11247;SDS011;5681;53.316;13.950;2024-03-07T01:25:35;23.07;;;14.23;;
11247;SDS011;5681;53.316;13.950;2024-03-07T01:28:02;27.03;;;14.50;;
11247;SDS011;5681;53.316;13.950;2024-03-07T01:30:30;30.77;;;14.40;;
11247;SDS011;5681;53.316;13.950;2024-03-07T01:32:57;22.27;;;14.27;;
11247;SDS011;5681;53.316;13.950;2024-03-07T01:35:23;19.60;;;13.27;;
11247;SDS011;5681;53.316;13.950;2024-03-07T01:37:49;22.70;;;13.73;;
11247;SDS011;5681;53.316;13.950;2024-03-07T01:40:16;22.17;;;13.30;;
11247;SDS011;5681;53.316;13.950;2024-03-07T01:42:42;22.80;;;13.80;;
11247;SDS011;5681;53.316;13.950;2024-03-07T01:45:09;20.80;;;13.50;;
11247;SDS011;5681;53.316;13.950;2024-03-07T01:47:37;26.77;;;14.40;;
11247;SDS011;5681;53.316;13.950;2024-03-07T01:50:03;20.63;;;13.33;;
11247;SDS011;5681;53.316;13.950;2024-03-07T01:52:31;21.87;;;12.97;;
11247;SDS011;5681;53.316;13.950;2024-03-07T01:54:57;21.43;;;13.10;;
11247;SDS011;5681;53.316;13.950;2024-03-07T01:57:24;23.73;;;13.53;;
11247;SDS011;5681;53.316;13.950;2024-03-07T01:59:50;23.77;;;13.00;;
11247;SDS011;5681;53.316;13.950;2024-03-07T02:02:17;24.80;;;13.00;;
11247;SDS011;5681;53.316;13.950;2024-03-07T02:04:45;23.90;;;13.47;;
11247;SDS011;5681;53.316;13.950;2024-03-07T02:07:11;19.73;;;12.53;;
11247;SDS011;5681;53.316;13.950;2024-03-07T02:09:38;21.23;;;12.93;;
11247;SDS011;5681;53.316;13.950;2024-03-07T02:12:04;24.53;;;13.17;;
11247;SDS011;5681;53.316;13.950;2024-03-07T02:14:31;25.17;;;14.17;;
11247;SDS011;5681;53.316;13.950;2024-03-07T02:16:57;24.53;;;13.53;;
11247;SDS011;5681;53.316;13.950;2024-03-07T02:19:24;21.67;;;13.13;;
11247;SDS011;5681;53.316;13.950;2024-03-07T02:21:52;26.00;;;13.70;;
11247;SDS011;5681;53.316;13.950;2024-03-07T02:24:18;21.97;;;13.53;;
11247;SDS011;5681;53.316;13.950;2024-03-07T02:26:45;23.60;;;13.37;;
11247;SDS011;5681;53.316;13.950;2024-03-07T02:29:11;24.67;;;13.63;;
11247;SDS011;5681;53.316;13.950;2024-03-07T02:31:37;22.40;;;12.83;;
11247;SDS011;5681;53.316;13.950;2024-03-07T02:34:06;20.30;;;13.43;;
11247;SDS011;5681;53.316;13.950;2024-03-07T02:36:33;27.70;;;14.40;;
11247;SDS011;5681;53.316;13.950;2024-03-07T02:39:01;26.20;;;14.33;;
11247;SDS011;5681;53.316;13.950;2024-03-07T02:41:27;24.80;;;13.67;;
11247;SDS011;5681;53.316;13.950;2024-03-07T02:43:54;21.00;;;14.33;;
11247;SDS011;5681;53.316;13.950;2024-03-07T02:46:20;22.33;;;13.47;;
11247;SDS011;5681;53.316;13.950;2024-03-07T02:48:46;22.80;;;12.87;;
11247;SDS011;5681;53.316;13.950;2024-03-07T02:51:13;21.77;;;13.70;;
11247;SDS011;5681;53.316;13.950;2024-03-07T02:53:39;21.27;;;12.90;;
11247;SDS011;5681;53.316;13.950;2024-03-07T02:56:07;21.13;;;13.80;;
11247;SDS011;5681;53.316;13.950;2024-03-07T02:58:34;25.33;;;14.40;;
11247;SDS011;5681;53.316;13.950;2024-03-07T03:01:01;23.80;;;13.23;;
11247;SDS011;5681;53.316;13.950;2024-03-07T03:03:28;22.77;;;14.40;;
11247;SDS011;5681;53.316;13.950;2024-03-07T03:05:56;27.10;;;13.70;;
11247;SDS011;5681;53.316;13.950;2024-03-07T03:08:22;29.67;;;14.93;;
11247;SDS011;5681;53.316;13.950;2024-03-07T03:10:49;37.33;;;15.13;;
11247;SDS011;5681;53.316;13.950;2024-03-07T03:13:17;34.27;;;15.57;;
11247;SDS011;5681;53.316;13.950;2024-03-07T03:15:44;40.87;;;16.20;;
11247;SDS011;5681;53.316;13.950;2024-03-07T03:18:10;39.33;;;17.40;;
11247;SDS011;5681;53.316;13.950;2024-03-07T03:20:37;39.17;;;16.67;;
11247;SDS011;5681;53.316;13.950;2024-03-07T03:23:05;40.73;;;16.87;;
11247;SDS011;5681;53.316;13.950;2024-03-07T03:25:36;39.83;;;18.87;;
11247;SDS011;5681;53.316;13.950;2024-03-07T03:28:03;50.77;;;19.40;;
11247;SDS011;5681;53.316;13.950;2024-03-07T03:30:31;46.23;;;19.47;;
11247;SDS011;5681;53.316;13.950;2024-03-07T03:32:58;49.57;;;20.43;;
11247;SDS011;5681;53.316;13.950;2024-03-07T03:35:24;47.43;;;22.17;;
11247;SDS011;5681;53.316;13.950;2024-03-07T03:37:51;69.07;;;24.83;;
11247;SDS011;5681;53.316;13.950;2024-03-07T03:40:17;70.30;;;24.23;;
11247;SDS011;5681;53.316;13.950;2024-03-07T03:42:44;125.67;;;24.73;;
11247;SDS011;5681;53.316;13.950;2024-03-07T03:45:10;104.00;;;24.60;;
11247;SDS011;5681;53.316;13.950;2024-03-07T03:47:41;110.00;;;22.30;;
11247;SDS011;5681;53.316;13.950;2024-03-07T03:50:09;95.43;;;23.67;;
11247;SDS011;5681;53.316;13.950;2024-03-07T03:52:37;51.27;;;23.07;;
11247;SDS011;5681;53.316;13.950;2024-03-07T03:55:04;78.80;;;23.47;;
11247;SDS011;5681;53.316;13.950;2024-03-07T03:57:31;147.43;;;25.33;;
11247;SDS011;5681;53.316;13.950;2024-03-07T03:59:58;111.97;;;23.20;;
11247;SDS011;5681;53.316;13.950;2024-03-07T04:02:24;71.80;;;22.67;;
11247;SDS011;5681;53.316;13.950;2024-03-07T04:04:52;107.77;;;24.03;;
11247;SDS011;5681;53.316;13.950;2024-03-07T04:07:19;229.23;;;24.67;;
11247;SDS011;5681;53.316;13.950;2024-03-07T04:09:46;227.00;;;24.57;;
11247;SDS011;5681;53.316;13.950;2024-03-07T04:12:13;105.40;;;23.00;;
11247;SDS011;5681;53.316;13.950;2024-03-07T04:14:40;76.00;;;22.70;;
11247;SDS011;5681;53.316;13.950;2024-03-07T04:17:07;46.87;;;21.53;;
11247;SDS011;5681;53.316;13.950;2024-03-07T04:19:34;37.07;;;21.00;;
11247;SDS011;5681;53.316;13.950;2024-03-07T04:22:02;37.90;;;20.60;;
11247;SDS011;5681;53.316;13.950;2024-03-07T04:24:29;152.63;;;20.87;;
11247;SDS011;5681;53.316;13.950;2024-03-07T04:26:57;36.60;;;19.97;;
11247;SDS011;5681;53.316;13.950;2024-03-07T04:29:24;60.43;;;21.23;;
11247;SDS011;5681;53.316;13.950;2024-03-07T04:31:50;38.30;;;19.37;;
11247;SDS011;5681;53.316;13.950;2024-03-07T04:34:17;28.20;;;19.77;;
11247;SDS011;5681;53.316;13.950;2024-03-07T04:36:43;32.23;;;26.00;;
11247;SDS011;5681;53.316;13.950;2024-03-07T04:39:11;37.50;;;30.17;;
11247;SDS011;5681;53.316;13.950;2024-03-07T04:41:49;48.27;;;29.57;;
11247;SDS011;5681;53.316;13.950;2024-03-07T04:44:15;54.77;;;27.80;;
11247;SDS011;5681;53.316;13.950;2024-03-07T04:46:42;29.23;;;21.70;;
11247;SDS011;5681;53.316;13.950;2024-03-07T04:49:09;29.53;;;20.53;;
11247;SDS011;5681;53.316;13.950;2024-03-07T04:51:35;33.50;;;21.23;;
11247;SDS011;5681;53.316;13.950;2024-03-07T04:54:02;29.30;;;21.57;;
11247;SDS011;5681;53.316;13.950;2024-03-07T04:56:29;34.13;;;22.40;;
11247;SDS011;5681;53.316;13.950;2024-03-07T04:58:56;31.13;;;22.60;;
11247;SDS011;5681;53.316;13.950;2024-03-07T05:01:22;37.33;;;23.60;;
11247;SDS011;5681;53.316;13.950;2024-03-07T05:03:48;35.90;;;22.57;;
11247;SDS011;5681;53.316;13.950;2024-03-07T05:06:15;33.63;;;21.93;;
11247;SDS011;5681;53.316;13.950;2024-03-07T05:08:41;35.97;;;22.03;;
11247;SDS011;5681;53.316;13.950;2024-03-07T05:11:08;35.27;;;23.17;;
11247;SDS011;5681;53.316;13.950;2024-03-07T05:13:36;31.53;;;22.13;;
11247;SDS011;5681;53.316;13.950;2024-03-07T05:16:03;34.83;;;22.40;;
11247;SDS011;5681;53.316;13.950;2024-03-07T05:18:30;32.40;;;22.43;;
11247;SDS011;5681;53.316;13.950;2024-03-07T05:20:57;31.00;;;22.53;;
11247;SDS011;5681;53.316;13.950;2024-03-07T05:23:43;34.83;;;21.63;;
11247;SDS011;5681;53.316;13.950;2024-03-07T05:26:09;35.13;;;21.67;;
11247;SDS011;5681;53.316;13.950;2024-03-07T05:28:37;35.50;;;21.53;;
11247;SDS011;5681;53.316;13.950;2024-03-07T05:31:04;34.77;;;22.93;;
11247;SDS011;5681;53.316;13.950;2024-03-07T05:33:30;34.67;;;24.93;;
11247;SDS011;5681;53.316;13.950;2024-03-07T05:35:57;42.17;;;28.53;;
11247;SDS011;5681;53.316;13.950;2024-03-07T05:38:38;37.00;;;24.67;;
11247;SDS011;5681;53.316;13.950;2024-03-07T05:41:05;34.50;;;23.37;;
11247;SDS011;5681;53.316;13.950;2024-03-07T05:43:33;34.30;;;22.90;;
11247;SDS011;5681;53.316;13.950;2024-03-07T05:46:01;34.87;;;21.90;;
11247;SDS011;5681;53.316;13.950;2024-03-07T05:48:30;32.57;;;21.17;;
11247;SDS011;5681;53.316;13.950;2024-03-07T05:50:56;32.87;;;22.00;;
11247;SDS011;5681;53.316;13.950;2024-03-07T05:53:23;35.20;;;21.73;;
11247;SDS011;5681;53.316;13.950;2024-03-07T05:55:50;34.67;;;21.00;;
11247;SDS011;5681;53.316;13.950;2024-03-07T05:58:16;34.53;;;23.33;;
11247;SDS011;5681;53.316;13.950;2024-03-07T06:00:44;30.13;;;20.97;;
11247;SDS011;5681;53.316;13.950;2024-03-07T06:03:15;35.73;;;22.07;;
11247;SDS011;5681;53.316;13.950;2024-03-07T06:05:42;32.57;;;21.07;;
11247;SDS011;5681;53.316;13.950;2024-03-07T06:08:10;35.80;;;23.20;;
11247;SDS011;5681;53.316;13.950;2024-03-07T06:10:37;39.53;;;21.73;;
11247;SDS011;5681;53.316;13.950;2024-03-07T06:13:06;34.60;;;21.87;;
11247;SDS011;5681;53.316;13.950;2024-03-07T06:15:32;33.33;;;21.20;;
11247;SDS011;5681;53.316;13.950;2024-03-07T06:17:59;38.37;;;22.90;;
11247;SDS011;5681;53.316;13.950;2024-03-07T06:20:27;33.43;;;22.07;;
11247;SDS011;5681;53.316;13.950;2024-03-07T06:22:53;41.23;;;22.63;;
11247;SDS011;5681;53.316;13.950;2024-03-07T06:25:20;36.37;;;21.87;;
11247;SDS011;5681;53.316;13.950;2024-03-07T06:27:58;35.77;;;22.10;;
11247;SDS011;5681;53.316;13.950;2024-03-07T06:30:33;35.57;;;23.80;;
11247;SDS011;5681;53.316;13.950;2024-03-07T06:33:00;37.67;;;24.17;;
11247;SDS011;5681;53.316;13.950;2024-03-07T06:35:27;36.57;;;24.97;;
11247;SDS011;5681;53.316;13.950;2024-03-07T06:37:54;38.43;;;23.73;;
11247;SDS011;5681;53.316;13.950;2024-03-07T06:40:20;36.23;;;22.70;;
11247;SDS011;5681;53.316;13.950;2024-03-07T06:42:47;38.27;;;22.67;;
11247;SDS011;5681;53.316;13.950;2024-03-07T06:45:14;35.43;;;23.10;;
11247;SDS011;5681;53.316;13.950;2024-03-07T06:47:41;34.73;;;23.30;;
11247;SDS011;5681;53.316;13.950;2024-03-07T06:50:08;31.20;;;22.17;;
11247;SDS011;5681;53.316;13.950;2024-03-07T06:52:40;32.37;;;22.23;;
11247;SDS011;5681;53.316;13.950;2024-03-07T06:55:07;36.07;;;22.57;;
11247;SDS011;5681;53.316;13.950;2024-03-07T06:57:34;33.60;;;21.13;;
11247;SDS011;5681;53.316;13.950;2024-03-07T07:00:00;31.90;;;21.73;;
11247;SDS011;5681;53.316;13.950;2024-03-07T07:02:35;35.67;;;22.23;;
11247;SDS011;5681;53.316;13.950;2024-03-07T07:05:03;31.53;;;21.37;;
11247;SDS011;5681;53.316;13.950;2024-03-07T07:07:32;29.10;;;20.77;;
11247;SDS011;5681;53.316;13.950;2024-03-07T07:10:00;29.63;;;20.20;;
11247;SDS011;5681;53.316;13.950;2024-03-07T07:12:27;27.30;;;19.07;;
11247;SDS011;5681;53.316;13.950;2024-03-07T07:14:54;29.90;;;19.43;;
11247;SDS011;5681;53.316;13.950;2024-03-07T07:17:21;28.87;;;19.40;;
11247;SDS011;5681;53.316;13.950;2024-03-07T07:19:48;28.77;;;19.63;;
11247;SDS011;5681;53.316;13.950;2024-03-07T07:22:15;29.83;;;19.17;;
11247;SDS011;5681;53.316;13.950;2024-03-07T07:24:43;28.63;;;18.63;;
11247;SDS011;5681;53.316;13.950;2024-03-07T07:27:10;26.93;;;18.90;;
11247;SDS011;5681;53.316;13.950;2024-03-07T07:29:37;25.37;;;19.17;;
11247;SDS011;5681;53.316;13.950;2024-03-07T07:32:04;26.60;;;17.90;;
11247;SDS011;5681;53.316;13.950;2024-03-07T07:34:31;29.53;;;18.40;;
11247;SDS011;5681;53.316;13.950;2024-03-07T07:36:57;25.23;;;17.97;;
11247;SDS011;5681;53.316;13.950;2024-03-07T07:39:24;25.70;;;18.27;;
11247;SDS011;5681;53.316;13.950;2024-03-07T07:41:50;28.30;;;18.70;;
11247;SDS011;5681;53.316;13.950;2024-03-07T07:44:18;24.43;;;18.13;;
11247;SDS011;5681;53.316;13.950;2024-03-07T07:46:44;28.20;;;19.20;;
11247;SDS011;5681;53.316;13.950;2024-03-07T07:49:10;28.47;;;17.70;;
11247;SDS011;5681;53.316;13.950;2024-03-07T07:51:37;32.73;;;18.50;;
11247;SDS011;5681;53.316;13.950;2024-03-07T07:54:03;27.67;;;17.73;;
11247;SDS011;5681;53.316;13.950;2024-03-07T07:56:29;22.60;;;17.63;;
11247;SDS011;5681;53.316;13.950;2024-03-07T07:58:56;24.07;;;18.00;;
11247;SDS011;5681;53.316;13.950;2024-03-07T08:01:24;24.43;;;17.37;;
11247;SDS011;5681;53.316;13.950;2024-03-07T08:03:51;24.83;;;16.97;;
11247;SDS011;5681;53.316;13.950;2024-03-07T08:06:17;28.53;;;18.00;;
11247;SDS011;5681;53.316;13.950;2024-03-07T08:08:44;24.83;;;17.50;;
11247;SDS011;5681;53.316;13.950;2024-03-07T08:11:10;27.93;;;16.97;;
11247;SDS011;5681;53.316;13.950;2024-03-07T08:13:39;26.30;;;17.73;;
11247;SDS011;5681;53.316;13.950;2024-03-07T08:16:06;25.80;;;17.67;;
11247;SDS011;5681;53.316;13.950;2024-03-07T08:18:34;22.37;;;17.07;;
11247;SDS011;5681;53.316;13.950;2024-03-07T08:21:00;25.83;;;17.37;;
11247;SDS011;5681;53.316;13.950;2024-03-07T08:23:26;26.07;;;16.90;;
11247;SDS011;5681;53.316;13.950;2024-03-07T08:25:54;25.73;;;16.83;;
11247;SDS011;5681;53.316;13.950;2024-03-07T08:28:21;23.43;;;16.93;;
11247;SDS011;5681;53.316;13.950;2024-03-07T08:30:47;22.97;;;16.30;;
11247;SDS011;5681;53.316;13.950;2024-03-07T08:33:13;25.23;;;17.27;;
11247;SDS011;5681;53.316;13.950;2024-03-07T08:35:41;26.50;;;17.07;;
11247;SDS011;5681;53.316;13.950;2024-03-07T08:38:07;26.23;;;17.20;;
11247;SDS011;5681;53.316;13.950;2024-03-07T08:40:35;24.33;;;17.60;;
11247;SDS011;5681;53.316;13.950;2024-03-07T08:43:01;23.13;;;16.67;;
11247;SDS011;5681;53.316;13.950;2024-03-07T08:45:28;23.23;;;17.50;;
11247;SDS011;5681;53.316;13.950;2024-03-07T08:47:58;40.03;;;27.93;;
11247;SDS011;5681;53.316;13.950;2024-03-07T08:50:25;29.70;;;17.40;;
11247;SDS011;5681;53.316;13.950;2024-03-07T08:52:53;25.30;;;17.40;;
11247;SDS011;5681;53.316;13.950;2024-03-07T08:55:20;24.73;;;16.63;;
11247;SDS011;5681;53.316;13.950;2024-03-07T08:57:49;22.63;;;16.93;;
11247;SDS011;5681;53.316;13.950;2024-03-07T09:00:16;24.27;;;17.30;;
11247;SDS011;5681;53.316;13.950;2024-03-07T09:02:53;27.48;;;17.23;;
11247;SDS011;5681;53.316;13.950;2024-03-07T09:05:22;25.73;;;17.43;;
11247;SDS011;5681;53.316;13.950;2024-03-07T09:07:49;24.00;;;16.90;;
11247;SDS011;5681;53.316;13.950;2024-03-07T09:10:17;24.30;;;16.53;;
11247;SDS011;5681;53.316;13.950;2024-03-07T09:12:44;22.63;;;16.23;;
11247;SDS011;5681;53.316;13.950;2024-03-07T09:15:13;22.02;;;17.40;;
11247;SDS011;5681;53.316;13.950;2024-03-07T09:17:42;20.83;;;15.63;;
11247;SDS011;5681;53.316;13.950;2024-03-07T09:20:09;25.17;;;16.83;;
11247;SDS011;5681;53.316;13.950;2024-03-07T09:22:39;25.13;;;16.60;;
11247;SDS011;5681;53.316;13.950;2024-03-07T09:25:06;21.83;;;16.30;;
11247;SDS011;5681;53.316;13.950;2024-03-07T09:27:34;22.65;;;16.52;;
11247;SDS011;5681;53.316;13.950;2024-03-07T09:30:01;24.10;;;16.63;;
11247;SDS011;5681;53.316;13.950;2024-03-07T09:32:27;22.77;;;16.77;;
11247;SDS011;5681;53.316;13.950;2024-03-07T09:34:58;22.15;;;17.05;;
11247;SDS011;5681;53.316;13.950;2024-03-07T09:37:25;28.73;;;16.77;;
11247;SDS011;5681;53.316;13.950;2024-03-07T09:39:52;22.85;;;16.02;;
11247;SDS011;5681;53.316;13.950;2024-03-07T09:42:18;21.90;;;16.20;;
11247;SDS011;5681;53.316;13.950;2024-03-07T09:44:47;19.48;;;15.77;;
11247;SDS011;5681;53.316;13.950;2024-03-07T09:47:15;23.38;;;15.73;;
11247;SDS011;5681;53.316;13.950;2024-03-07T09:49:42;23.70;;;16.60;;
11247;SDS011;5681;53.316;13.950;2024-03-07T09:52:08;18.67;;;14.30;;
11247;SDS011;5681;53.316;13.950;2024-03-07T09:54:36;22.02;;;14.85;;
11247;SDS011;5681;53.316;13.950;2024-03-07T09:57:03;21.33;;;15.38;;
11247;SDS011;5681;53.316;13.950;2024-03-07T09:59:34;22.50;;;15.45;;
11247;SDS011;5681;53.316;13.950;2024-03-07T10:02:03;19.70;;;15.23;;
11247;SDS011;5681;53.316;13.950;2024-03-07T10:04:37;23.92;;;15.25;;
11247;SDS011;5681;53.316;13.950;2024-03-07T10:07:06;21.10;;;15.80;;
11247;SDS011;5681;53.316;13.950;2024-03-07T10:09:36;31.85;;;16.08;;
11247;SDS011;5681;53.316;13.950;2024-03-07T10:12:03;26.92;;;16.08;;
11247;SDS011;5681;53.316;13.950;2024-03-07T10:14:32;22.33;;;15.30;;
11247;SDS011;5681;53.316;13.950;2024-03-07T10:16:58;21.52;;;15.70;;
11247;SDS011;5681;53.316;13.950;2024-03-07T10:19:27;20.77;;;14.93;;
11247;SDS011;5681;53.316;13.950;2024-03-07T10:21:55;24.25;;;15.70;;
11247;SDS011;5681;53.316;13.950;2024-03-07T10:24:24;20.35;;;14.77;;
11247;SDS011;5681;53.316;13.950;2024-03-07T10:26:51;22.58;;;14.93;;
11247;SDS011;5681;53.316;13.950;2024-03-07T10:29:17;22.63;;;15.00;;
11247;SDS011;5681;53.316;13.950;2024-03-07T10:31:44;19.75;;;16.02;;
11247;SDS011;5681;53.316;13.950;2024-03-07T10:34:10;26.52;;;15.68;;
11247;SDS011;5681;53.316;13.950;2024-03-07T10:36:38;19.27;;;14.73;;
11247;SDS011;5681;53.316;13.950;2024-03-07T10:39:05;19.35;;;14.43;;
11247;SDS011;5681;53.316;13.950;2024-03-07T10:41:41;22.27;;;15.93;;
11247;SDS011;5681;53.316;13.950;2024-03-07T10:44:11;19.90;;;14.70;;
11247;SDS011;5681;53.316;13.950;2024-03-07T10:46:39;18.20;;;14.00;;
11247;SDS011;5681;53.316;13.950;2024-03-07T10:49:05;17.80;;;13.40;;
11247;SDS011;5681;53.316;13.950;2024-03-07T10:51:37;15.65;;;12.43;;
11247;SDS011;5681;53.316;13.950;2024-03-07T10:54:13;13.77;;;12.30;;
11247;SDS011;5681;53.316;13.950;2024-03-07T10:56:47;19.83;;;12.75;;
11247;SDS011;5681;53.316;13.950;2024-03-07T10:59:24;17.60;;;12.45;;
11247;SDS011;5681;53.316;13.950;2024-03-07T11:01:53;20.02;;;11.88;;
11247;SDS011;5681;53.316;13.950;2024-03-07T11:04:25;17.00;;;12.00;;
11247;SDS011;5681;53.316;13.950;2024-03-07T11:06:54;14.65;;;11.30;;
11247;SDS011;5681;53.316;13.950;2024-03-07T11:09:21;15.30;;;12.18;;
11247;SDS011;5681;53.316;13.950;2024-03-07T11:11:49;19.73;;;13.38;;
11247;SDS011;5681;53.316;13.950;2024-03-07T11:14:15;15.80;;;12.88;;
11247;SDS011;5681;53.316;13.950;2024-03-07T11:16:43;21.17;;;12.65;;
11247;SDS011;5681;53.316;13.950;2024-03-07T11:19:19;20.30;;;12.63;;
11247;SDS011;5681;53.316;13.950;2024-03-07T11:21:47;17.45;;;12.70;;
11247;SDS011;5681;53.316;13.950;2024-03-07T11:24:25;18.17;;;12.88;;
11247;SDS011;5681;53.316;13.950;2024-03-07T11:26:53;16.27;;;13.15;;
11247;SDS011;5681;53.316;13.950;2024-03-07T11:29:39;18.35;;;12.85;;
11247;SDS011;5681;53.316;13.950;2024-03-07T11:32:08;19.00;;;13.73;;
11247;SDS011;5681;53.316;13.950;2024-03-07T11:34:37;28.98;;;13.90;;
11247;SDS011;5681;53.316;13.950;2024-03-07T11:37:03;21.38;;;13.95;;
11247;SDS011;5681;53.316;13.950;2024-03-07T11:39:40;17.20;;;14.40;;
11247;SDS011;5681;53.316;13.950;2024-03-07T11:42:07;17.58;;;13.70;;
11247;SDS011;5681;53.316;13.950;2024-03-07T11:44:34;16.88;;;12.90;;
11247;SDS011;5681;53.316;13.950;2024-03-07T11:47:01;16.80;;;13.15;;
11247;SDS011;5681;53.316;13.950;2024-03-07T11:49:33;18.20;;;13.95;;
11247;SDS011;5681;53.316;13.950;2024-03-07T11:52:01;18.35;;;13.68;;
11247;SDS011;5681;53.316;13.950;2024-03-07T11:54:29;18.65;;;14.45;;
11247;SDS011;5681;53.316;13.950;2024-03-07T11:56:57;18.73;;;14.50;;
11247;SDS011;5681;53.316;13.950;2024-03-07T11:59:23;21.60;;;15.18;;
11247;SDS011;5681;53.316;13.950;2024-03-07T12:01:50;18.02;;;15.43;;
11247;SDS011;5681;53.316;13.950;2024-03-07T12:04:17;19.98;;;15.68;;
11247;SDS011;5681;53.316;13.950;2024-03-07T12:06:49;23.75;;;15.13;;
11247;SDS011;5681;53.316;13.950;2024-03-07T12:09:16;17.90;;;14.23;;
11247;SDS011;5681;53.316;13.950;2024-03-07T12:11:49;19.38;;;14.35;;
11247;SDS011;5681;53.316;13.950;2024-03-07T12:14:19;18.60;;;15.10;;
11247;SDS011;5681;53.316;13.950;2024-03-07T12:16:45;20.15;;;14.30;;
11247;SDS011;5681;53.316;13.950;2024-03-07T12:19:12;20.48;;;15.00;;
11247;SDS011;5681;53.316;13.950;2024-03-07T12:21:42;17.38;;;14.70;;
11247;SDS011;5681;53.316;13.950;2024-03-07T12:24:12;17.60;;;13.50;;
11247;SDS011;5681;53.316;13.950;2024-03-07T12:26:38;19.52;;;15.35;;
11247;SDS011;5681;53.316;13.950;2024-03-07T12:29:08;22.23;;;14.25;;
11247;SDS011;5681;53.316;13.950;2024-03-07T12:31:38;20.67;;;15.55;;
11247;SDS011;5681;53.316;13.950;2024-03-07T12:34:04;20.67;;;15.18;;
11247;SDS011;5681;53.316;13.950;2024-03-07T12:36:34;18.13;;;14.25;;
11247;SDS011;5681;53.316;13.950;2024-03-07T12:39:10;18.83;;;13.98;;
11247;SDS011;5681;53.316;13.950;2024-03-07T12:41:49;16.05;;;13.98;;
11247;SDS011;5681;53.316;13.950;2024-03-07T12:44:17;18.83;;;13.95;;
11247;SDS011;5681;53.316;13.950;2024-03-07T12:46:47;17.52;;;13.77;;
11247;SDS011;5681;53.316;13.950;2024-03-07T12:49:13;27.23;;;18.77;;
11247;SDS011;5681;53.316;13.950;2024-03-07T12:51:41;16.45;;;12.50;;
11247;SDS011;5681;53.316;13.950;2024-03-07T12:54:07;26.42;;;17.23;;
11247;SDS011;5681;53.316;13.950;2024-03-07T12:56:35;20.00;;;13.68;;
11247;SDS011;5681;53.316;13.950;2024-03-07T12:59:02;16.20;;;12.77;;
11247;SDS011;5681;53.316;13.950;2024-03-07T13:01:29;14.95;;;12.55;;
11247;SDS011;5681;53.316;13.950;2024-03-07T13:03:57;14.00;;;12.07;;
11247;SDS011;5681;53.316;13.950;2024-03-07T13:06:24;15.38;;;12.40;;
11247;SDS011;5681;53.316;13.950;2024-03-07T13:08:54;18.35;;;13.95;;
11247;SDS011;5681;53.316;13.950;2024-03-07T13:11:21;19.42;;;13.43;;
11247;SDS011;5681;53.316;13.950;2024-03-07T13:13:48;17.98;;;13.35;;
11247;SDS011;5681;53.316;13.950;2024-03-07T13:16:17;16.40;;;13.60;;
11247;SDS011;5681;53.316;13.950;2024-03-07T13:18:43;15.77;;;12.90;;
11247;SDS011;5681;53.316;13.950;2024-03-07T13:21:12;16.40;;;13.10;;
11247;SDS011;5681;53.316;13.950;2024-03-07T13:23:42;16.13;;;12.95;;
11247;SDS011;5681;53.316;13.950;2024-03-07T13:26:09;18.50;;;13.02;;
11247;SDS011;5681;53.316;13.950;2024-03-07T13:28:41;14.20;;;11.93;;
11247;SDS011;5681;53.316;13.950;2024-03-07T13:31:09;19.25;;;13.57;;
11247;SDS011;5681;53.316;13.950;2024-03-07T13:33:36;17.58;;;12.23;;
11247;SDS011;5681;53.316;13.950;2024-03-07T13:36:03;18.13;;;12.93;;
11247;SDS011;5681;53.316;13.950;2024-03-07T13:38:31;15.38;;;11.80;;
11247;SDS011;5681;53.316;13.950;2024-03-07T13:40:58;19.63;;;12.88;;
11247;SDS011;5681;53.316;13.950;2024-03-07T13:43:28;19.85;;;12.10;;
11247;SDS011;5681;53.316;13.950;2024-03-07T13:45:55;16.38;;;11.70;;
11247;SDS011;5681;53.316;13.950;2024-03-07T13:48:21;16.60;;;12.88;;
11247;SDS011;5681;53.316;13.950;2024-03-07T13:50:48;14.75;;;12.27;;
11247;SDS011;5681;53.316;13.950;2024-03-07T13:53:15;16.73;;;12.63;;
11247;SDS011;5681;53.316;13.950;2024-03-07T13:56:00;17.10;;;11.82;;
11247;SDS011;5681;53.316;13.950;2024-03-07T13:58:50;17.48;;;11.70;;
11247;SDS011;5681;53.316;13.950;2024-03-07T14:01:29;15.88;;;11.32;;
11247;SDS011;5681;53.316;13.950;2024-03-07T14:04:12;13.70;;;11.20;;
11247;SDS011;5681;53.316;13.950;2024-03-07T14:06:51;15.57;;;12.43;;
11247;SDS011;5681;53.316;13.950;2024-03-07T14:09:35;17.38;;;12.68;;
11247;SDS011;5681;53.316;13.950;2024-03-07T14:12:31;15.98;;;12.43;;
11247;SDS011;5681;53.316;13.950;2024-03-07T14:21:26;13.75;;;11.40;;
11247;SDS011;5681;53.316;13.950;2024-03-07T14:24:28;19.35;;;13.07;;
11247;SDS011;5681;53.316;13.950;2024-03-07T14:27:09;19.88;;;11.43;;
11247;SDS011;5681;53.316;13.950;2024-03-07T14:29:47;13.85;;;11.38;;
11247;SDS011;5681;53.316;13.950;2024-03-07T14:32:17;14.88;;;11.55;;
11247;SDS011;5681;53.316;13.950;2024-03-07T14:34:53;15.15;;;11.85;;